sensor_id;sensor_type;location;lat;lon;timestamp;P1;durP1;ratioP1;P2;durP2;ratioP2
52724;SDS011;38621;52.830;6.914;2022-08-25T00:01:07;4.22;;;3.22;;
52724;SDS011;38621;52.830;6.914;2022-08-25T00:03:38;4.93;;;3.53;;
52724;SDS011;38621;52.830;6.914;2022-08-25T00:06:05;3.85;;;3.40;;
52724;SDS011;38621;52.830;6.914;2022-08-25T00:08:33;4.32;;;3.42;;
52724;SDS011;38621;52.830;6.914;2022-08-25T00:11:02;5.10;;;3.85;;
52724;SDS011;38621;52.830;6.914;2022-08-25T00:13:36;4.75;;;3.60;;
52724;SDS011;38621;52.830;6.914;2022-08-25T00:16:08;5.18;;;3.60;;
52724;SDS011;38621;52.830;6.914;2022-08-25T00:18:35;4.05;;;3.65;;
52724;SDS011;38621;52.830;6.914;2022-08-25T00:21:02;4.05;;;3.65;;
52724;SDS011;38621;52.830;6.914;2022-08-25T00:23:29;4.60;;;3.80;;
52724;SDS011;38621;52.830;6.914;2022-08-25T00:25:54;4.60;;;3.50;;
52724;SDS011;38621;52.830;6.914;2022-08-25T00:28:21;4.40;;;3.83;;
52724;SDS011;38621;52.830;6.914;2022-08-25T00:30:48;4.28;;;3.50;;
52724;SDS011;38621;52.830;6.914;2022-08-25T00:33:14;4.45;;;3.60;;
52724;SDS011;38621;52.830;6.914;2022-08-25T00:35:41;4.07;;;3.60;;
52724;SDS011;38621;52.830;6.914;2022-08-25T00:38:07;4.32;;;3.70;;
52724;SDS011;38621;52.830;6.914;2022-08-25T00:40:34;4.45;;;3.50;;
52724;SDS011;38621;52.830;6.914;2022-08-25T00:43:01;3.95;;;3.42;;
52724;SDS011;38621;52.830;6.914;2022-08-25T00:45:30;3.92;;;3.53;;
52724;SDS011;38621;52.830;6.914;2022-08-25T00:47:57;4.70;;;3.47;;
52724;SDS011;38621;52.830;6.914;2022-08-25T00:50:23;3.67;;;3.22;;
52724;SDS011;38621;52.830;6.914;2022-08-25T00:52:50;6.25;;;3.90;;
52724;SDS011;38621;52.830;6.914;2022-08-25T00:57:54;3.55;;;3.10;;
52724;SDS011;38621;52.830;6.914;2022-08-25T01:02:55;4.60;;;3.10;;
52724;SDS011;38621;52.830;6.914;2022-08-25T01:05:22;4.65;;;3.40;;
52724;SDS011;38621;52.830;6.914;2022-08-25T01:07:49;4.47;;;3.17;;
52724;SDS011;38621;52.830;6.914;2022-08-25T01:10:16;4.78;;;3.95;;
52724;SDS011;38621;52.830;6.914;2022-08-25T01:12:44;3.97;;;3.03;;
52724;SDS011;38621;52.830;6.914;2022-08-25T01:15:10;4.68;;;3.00;;
52724;SDS011;38621;52.830;6.914;2022-08-25T01:17:47;4.60;;;3.28;;
52724;SDS011;38621;52.830;6.914;2022-08-25T01:20:19;4.05;;;3.13;;
52724;SDS011;38621;52.830;6.914;2022-08-25T01:22:47;4.57;;;3.20;;
52724;SDS011;38621;52.830;6.914;2022-08-25T01:25:31;3.67;;;3.13;;
52724;SDS011;38621;52.830;6.914;2022-08-25T01:27:59;4.80;;;3.22;;
52724;SDS011;38621;52.830;6.914;2022-08-25T01:30:26;3.33;;;2.95;;
52724;SDS011;38621;52.830;6.914;2022-08-25T01:32:52;5.57;;;3.13;;
52724;SDS011;38621;52.830;6.914;2022-08-25T01:35:17;4.63;;;3.08;;
52724;SDS011;38621;52.830;6.914;2022-08-25T01:37:43;4.05;;;3.05;;
52724;SDS011;38621;52.830;6.914;2022-08-25T01:40:09;3.33;;;3.03;;
52724;SDS011;38621;52.830;6.914;2022-08-25T01:45:27;4.10;;;3.40;;
52724;SDS011;38621;52.830;6.914;2022-08-25T01:47:53;4.38;;;3.40;;
52724;SDS011;38621;52.830;6.914;2022-08-25T01:50:19;3.80;;;3.00;;
52724;SDS011;38621;52.830;6.914;2022-08-25T01:52:48;5.28;;;3.22;;
52724;SDS011;38621;52.830;6.914;2022-08-25T01:55:27;4.60;;;3.20;;
52724;SDS011;38621;52.830;6.914;2022-08-25T01:57:53;4.20;;;3.50;;
52724;SDS011;38621;52.830;6.914;2022-08-25T02:00:19;4.40;;;3.65;;
52724;SDS011;38621;52.830;6.914;2022-08-25T02:02:45;6.18;;;3.78;;
52724;SDS011;38621;52.830;6.914;2022-08-25T02:05:12;4.72;;;3.70;;
52724;SDS011;38621;52.830;6.914;2022-08-25T02:07:40;4.35;;;3.70;;
52724;SDS011;38621;52.830;6.914;2022-08-25T02:10:08;4.72;;;4.00;;
52724;SDS011;38621;52.830;6.914;2022-08-25T02:12:35;5.15;;;3.97;;
52724;SDS011;38621;52.830;6.914;2022-08-25T02:15:01;6.07;;;3.65;;
52724;SDS011;38621;52.830;6.914;2022-08-25T02:17:31;4.20;;;3.53;;
52724;SDS011;38621;52.830;6.914;2022-08-25T02:20:00;3.65;;;3.30;;
52724;SDS011;38621;52.830;6.914;2022-08-25T02:22:27;4.40;;;2.95;;
52724;SDS011;38621;52.830;6.914;2022-08-25T02:24:53;3.33;;;2.92;;
52724;SDS011;38621;52.830;6.914;2022-08-25T02:27:19;4.55;;;3.17;;
52724;SDS011;38621;52.830;6.914;2022-08-25T02:29:45;3.75;;;2.70;;
52724;SDS011;38621;52.830;6.914;2022-08-25T02:32:11;3.33;;;2.70;;
52724;SDS011;38621;52.830;6.914;2022-08-25T02:34:37;5.28;;;2.75;;
52724;SDS011;38621;52.830;6.914;2022-08-25T02:37:05;4.82;;;2.60;;
52724;SDS011;38621;52.830;6.914;2022-08-25T02:39:32;3.65;;;2.45;;
52724;SDS011;38621;52.830;6.914;2022-08-25T02:41:58;3.97;;;2.38;;
52724;SDS011;38621;52.830;6.914;2022-08-25T02:44:24;3.25;;;2.47;;
52724;SDS011;38621;52.830;6.914;2022-08-25T02:46:49;3.92;;;2.17;;
52724;SDS011;38621;52.830;6.914;2022-08-25T02:49:15;5.03;;;2.65;;
52724;SDS011;38621;52.830;6.914;2022-08-25T02:51:41;3.55;;;2.70;;
52724;SDS011;38621;52.830;6.914;2022-08-25T02:54:06;3.42;;;2.92;;
52724;SDS011;38621;52.830;6.914;2022-08-25T02:56:33;4.53;;;2.88;;
52724;SDS011;38621;52.830;6.914;2022-08-25T02:58:59;3.72;;;2.60;;
52724;SDS011;38621;52.830;6.914;2022-08-25T03:01:26;4.03;;;3.03;;
52724;SDS011;38621;52.830;6.914;2022-08-25T03:03:53;5.75;;;3.00;;
52724;SDS011;38621;52.830;6.914;2022-08-25T03:06:19;3.28;;;2.72;;
52724;SDS011;38621;52.830;6.914;2022-08-25T03:08:49;4.50;;;2.80;;
52724;SDS011;38621;52.830;6.914;2022-08-25T03:11:16;3.55;;;2.70;;
52724;SDS011;38621;52.830;6.914;2022-08-25T03:13:42;4.25;;;2.70;;
52724;SDS011;38621;52.830;6.914;2022-08-25T03:16:08;3.80;;;2.42;;
52724;SDS011;38621;52.830;6.914;2022-08-25T03:18:34;3.75;;;2.63;;
52724;SDS011;38621;52.830;6.914;2022-08-25T03:21:00;4.03;;;2.72;;
52724;SDS011;38621;52.830;6.914;2022-08-25T03:23:27;5.90;;;3.00;;
52724;SDS011;38621;52.830;6.914;2022-08-25T03:25:56;4.38;;;3.00;;
52724;SDS011;38621;52.830;6.914;2022-08-25T03:28:40;4.55;;;2.90;;
52724;SDS011;38621;52.830;6.914;2022-08-25T03:31:06;4.10;;;3.05;;
52724;SDS011;38621;52.830;6.914;2022-08-25T03:33:32;3.15;;;2.85;;
52724;SDS011;38621;52.830;6.914;2022-08-25T03:35:58;3.30;;;2.85;;
52724;SDS011;38621;52.830;6.914;2022-08-25T03:38:24;3.65;;;3.00;;
52724;SDS011;38621;52.830;6.914;2022-08-25T03:40:51;4.78;;;2.95;;
52724;SDS011;38621;52.830;6.914;2022-08-25T03:43:17;3.33;;;2.92;;
52724;SDS011;38621;52.830;6.914;2022-08-25T03:45:44;3.92;;;3.17;;
52724;SDS011;38621;52.830;6.914;2022-08-25T03:48:10;4.57;;;3.30;;
52724;SDS011;38621;52.830;6.914;2022-08-25T03:50:36;3.95;;;3.25;;
52724;SDS011;38621;52.830;6.914;2022-08-25T03:53:12;4.10;;;3.13;;
52724;SDS011;38621;52.830;6.914;2022-08-25T03:55:38;3.78;;;3.00;;
52724;SDS011;38621;52.830;6.914;2022-08-25T03:58:05;4.30;;;3.40;;
52724;SDS011;38621;52.830;6.914;2022-08-25T04:00:30;3.97;;;3.30;;
52724;SDS011;38621;52.830;6.914;2022-08-25T04:02:56;3.97;;;3.42;;
52724;SDS011;38621;52.830;6.914;2022-08-25T04:05:22;4.05;;;2.90;;
52724;SDS011;38621;52.830;6.914;2022-08-25T04:07:47;4.10;;;3.58;;
52724;SDS011;38621;52.830;6.914;2022-08-25T04:10:13;3.90;;;3.38;;
52724;SDS011;38621;52.830;6.914;2022-08-25T04:12:39;4.50;;;3.10;;
52724;SDS011;38621;52.830;6.914;2022-08-25T04:15:06;5.40;;;3.20;;
52724;SDS011;38621;52.830;6.914;2022-08-25T04:17:32;4.20;;;3.40;;
52724;SDS011;38621;52.830;6.914;2022-08-25T04:20:00;4.40;;;3.17;;
52724;SDS011;38621;52.830;6.914;2022-08-25T04:22:28;3.90;;;3.47;;
52724;SDS011;38621;52.830;6.914;2022-08-25T04:24:55;4.50;;;3.38;;
52724;SDS011;38621;52.830;6.914;2022-08-25T04:27:22;5.50;;;3.22;;
52724;SDS011;38621;52.830;6.914;2022-08-25T04:29:47;4.55;;;3.22;;
52724;SDS011;38621;52.830;6.914;2022-08-25T04:32:13;5.13;;;3.63;;
52724;SDS011;38621;52.830;6.914;2022-08-25T04:34:39;4.32;;;3.10;;
52724;SDS011;38621;52.830;6.914;2022-08-25T04:37:05;4.82;;;3.28;;
52724;SDS011;38621;52.830;6.914;2022-08-25T04:39:32;4.32;;;3.15;;
52724;SDS011;38621;52.830;6.914;2022-08-25T04:41:58;4.88;;;3.08;;
52724;SDS011;38621;52.830;6.914;2022-08-25T04:44:24;4.20;;;3.10;;
52724;SDS011;38621;52.830;6.914;2022-08-25T04:46:50;5.28;;;3.45;;
52724;SDS011;38621;52.830;6.914;2022-08-25T04:49:16;5.18;;;3.50;;
52724;SDS011;38621;52.830;6.914;2022-08-25T04:51:42;3.67;;;3.30;;
52724;SDS011;38621;52.830;6.914;2022-08-25T04:54:09;4.90;;;3.70;;
52724;SDS011;38621;52.830;6.914;2022-08-25T04:56:40;4.45;;;3.50;;
52724;SDS011;38621;52.830;6.914;2022-08-25T04:59:08;4.82;;;3.67;;
52724;SDS011;38621;52.830;6.914;2022-08-25T05:01:37;4.75;;;3.30;;
52724;SDS011;38621;52.830;6.914;2022-08-25T05:04:05;5.50;;;3.63;;
52724;SDS011;38621;52.830;6.914;2022-08-25T05:06:32;4.93;;;3.38;;
52724;SDS011;38621;52.830;6.914;2022-08-25T05:08:59;4.15;;;3.33;;
52724;SDS011;38621;52.830;6.914;2022-08-25T05:11:25;4.43;;;3.50;;
52724;SDS011;38621;52.830;6.914;2022-08-25T05:13:52;3.88;;;3.38;;
52724;SDS011;38621;52.830;6.914;2022-08-25T05:16:21;4.85;;;3.22;;
52724;SDS011;38621;52.830;6.914;2022-08-25T05:18:48;4.00;;;3.22;;
52724;SDS011;38621;52.830;6.914;2022-08-25T05:21:16;4.65;;;3.40;;
52724;SDS011;38621;52.830;6.914;2022-08-25T05:23:44;3.92;;;3.17;;
52724;SDS011;38621;52.830;6.914;2022-08-25T05:26:15;5.25;;;3.60;;
52724;SDS011;38621;52.830;6.914;2022-08-25T05:28:43;4.82;;;3.42;;
52724;SDS011;38621;52.830;6.914;2022-08-25T05:31:10;4.15;;;3.08;;
52724;SDS011;38621;52.830;6.914;2022-08-25T05:33:38;4.68;;;3.20;;
52724;SDS011;38621;52.830;6.914;2022-08-25T05:36:05;3.90;;;3.30;;
52724;SDS011;38621;52.830;6.914;2022-08-25T05:38:32;5.38;;;3.97;;
52724;SDS011;38621;52.830;6.914;2022-08-25T05:40:59;5.85;;;3.20;;
52724;SDS011;38621;52.830;6.914;2022-08-25T05:43:27;6.05;;;3.88;;
52724;SDS011;38621;52.830;6.914;2022-08-25T05:45:54;5.05;;;3.72;;
52724;SDS011;38621;52.830;6.914;2022-08-25T05:48:20;7.50;;;3.55;;
52724;SDS011;38621;52.830;6.914;2022-08-25T05:50:52;4.65;;;3.53;;
52724;SDS011;38621;52.830;6.914;2022-08-25T05:53:28;6.15;;;3.50;;
52724;SDS011;38621;52.830;6.914;2022-08-25T05:55:55;5.90;;;3.30;;
52724;SDS011;38621;52.830;6.914;2022-08-25T05:58:22;5.57;;;3.85;;
52724;SDS011;38621;52.830;6.914;2022-08-25T06:00:51;4.13;;;3.50;;
52724;SDS011;38621;52.830;6.914;2022-08-25T06:03:17;6.53;;;3.65;;
52724;SDS011;38621;52.830;6.914;2022-08-25T06:05:43;4.70;;;3.50;;
52724;SDS011;38621;52.830;6.914;2022-08-25T06:08:09;5.82;;;3.63;;
52724;SDS011;38621;52.830;6.914;2022-08-25T06:10:35;4.18;;;3.53;;
52724;SDS011;38621;52.830;6.914;2022-08-25T06:13:01;5.65;;;3.63;;
52724;SDS011;38621;52.830;6.914;2022-08-25T06:15:27;4.50;;;3.53;;
52724;SDS011;38621;52.830;6.914;2022-08-25T06:17:53;5.20;;;3.38;;
52724;SDS011;38621;52.830;6.914;2022-08-25T06:20:22;4.03;;;3.28;;
52724;SDS011;38621;52.830;6.914;2022-08-25T06:22:50;5.25;;;3.58;;
52724;SDS011;38621;52.830;6.914;2022-08-25T06:25:18;8.10;;;3.72;;
52724;SDS011;38621;52.830;6.914;2022-08-25T06:27:45;5.60;;;3.70;;
52724;SDS011;38621;52.830;6.914;2022-08-25T06:30:13;4.40;;;3.35;;
52724;SDS011;38621;52.830;6.914;2022-08-25T06:32:41;5.18;;;3.50;;
52724;SDS011;38621;52.830;6.914;2022-08-25T06:35:09;7.43;;;3.72;;
52724;SDS011;38621;52.830;6.914;2022-08-25T06:37:37;4.70;;;3.50;;
52724;SDS011;38621;52.830;6.914;2022-08-25T06:40:06;4.75;;;3.70;;
52724;SDS011;38621;52.830;6.914;2022-08-25T06:42:32;5.65;;;3.78;;
52724;SDS011;38621;52.830;6.914;2022-08-25T06:44:58;6.78;;;3.83;;
52724;SDS011;38621;52.830;6.914;2022-08-25T06:47:25;6.55;;;3.55;;
52724;SDS011;38621;52.830;6.914;2022-08-25T06:49:51;4.47;;;3.30;;
52724;SDS011;38621;52.830;6.914;2022-08-25T06:52:17;4.70;;;2.88;;
52724;SDS011;38621;52.830;6.914;2022-08-25T06:54:43;4.50;;;3.30;;
52724;SDS011;38621;52.830;6.914;2022-08-25T06:57:09;7.03;;;3.60;;
52724;SDS011;38621;52.830;6.914;2022-08-25T06:59:35;3.83;;;3.03;;
52724;SDS011;38621;52.830;6.914;2022-08-25T07:02:02;3.72;;;2.85;;
52724;SDS011;38621;52.830;6.914;2022-08-25T07:04:29;6.22;;;3.33;;
52724;SDS011;38621;52.830;6.914;2022-08-25T07:06:56;5.20;;;3.05;;
52724;SDS011;38621;52.830;6.914;2022-08-25T07:09:21;5.60;;;2.97;;
52724;SDS011;38621;52.830;6.914;2022-08-25T07:11:47;4.45;;;2.67;;
52724;SDS011;38621;52.830;6.914;2022-08-25T07:14:14;4.55;;;2.85;;
52724;SDS011;38621;52.830;6.914;2022-08-25T07:16:41;3.40;;;2.60;;
52724;SDS011;38621;52.830;6.914;2022-08-25T07:19:07;5.00;;;2.80;;
52724;SDS011;38621;52.830;6.914;2022-08-25T07:21:35;3.90;;;2.90;;
52724;SDS011;38621;52.830;6.914;2022-08-25T07:24:06;3.33;;;2.60;;
52724;SDS011;38621;52.830;6.914;2022-08-25T07:26:33;4.85;;;2.65;;
52724;SDS011;38621;52.830;6.914;2022-08-25T07:29:00;3.58;;;2.38;;
52724;SDS011;38621;52.830;6.914;2022-08-25T07:31:49;4.47;;;2.80;;
52724;SDS011;38621;52.830;6.914;2022-08-25T07:34:15;4.15;;;2.63;;
52724;SDS011;38621;52.830;6.914;2022-08-25T07:37:00;4.45;;;2.90;;
52724;SDS011;38621;52.830;6.914;2022-08-25T07:39:29;3.22;;;2.60;;
52724;SDS011;38621;52.830;6.914;2022-08-25T07:41:56;4.28;;;2.58;;
52724;SDS011;38621;52.830;6.914;2022-08-25T07:44:22;4.20;;;2.63;;
52724;SDS011;38621;52.830;6.914;2022-08-25T07:46:49;4.18;;;2.78;;
52724;SDS011;38621;52.830;6.914;2022-08-25T07:49:15;4.03;;;2.72;;
52724;SDS011;38621;52.830;6.914;2022-08-25T07:51:42;3.60;;;2.40;;
52724;SDS011;38621;52.830;6.914;2022-08-25T07:54:08;4.38;;;2.85;;
52724;SDS011;38621;52.830;6.914;2022-08-25T07:56:34;3.00;;;2.35;;
52724;SDS011;38621;52.830;6.914;2022-08-25T07:59:00;5.05;;;2.50;;
52724;SDS011;38621;52.830;6.914;2022-08-25T08:01:25;4.43;;;2.85;;
52724;SDS011;38621;52.830;6.914;2022-08-25T08:03:51;4.28;;;2.78;;
52724;SDS011;38621;52.830;6.914;2022-08-25T08:06:19;3.95;;;2.90;;
52724;SDS011;38621;52.830;6.914;2022-08-25T08:08:47;5.18;;;2.53;;
52724;SDS011;38621;52.830;6.914;2022-08-25T08:11:19;4.13;;;2.53;;
52724;SDS011;38621;52.830;6.914;2022-08-25T08:13:53;4.88;;;2.78;;
52724;SDS011;38621;52.830;6.914;2022-08-25T08:16:22;4.80;;;2.95;;
52724;SDS011;38621;52.830;6.914;2022-08-25T08:18:50;5.20;;;2.95;;
52724;SDS011;38621;52.830;6.914;2022-08-25T08:23:48;4.85;;;2.42;;
52724;SDS011;38621;52.830;6.914;2022-08-25T08:26:15;7.03;;;3.05;;
52724;SDS011;38621;52.830;6.914;2022-08-25T08:28:41;3.30;;;2.63;;
52724;SDS011;38621;52.830;6.914;2022-08-25T08:31:07;4.20;;;2.60;;
52724;SDS011;38621;52.830;6.914;2022-08-25T08:33:33;3.50;;;2.38;;
52724;SDS011;38621;52.830;6.914;2022-08-25T08:36:03;3.92;;;2.60;;
52724;SDS011;38621;52.830;6.914;2022-08-25T08:38:32;4.15;;;2.55;;
52724;SDS011;38621;52.830;6.914;2022-08-25T08:44:05;3.30;;;2.70;;
52724;SDS011;38621;52.830;6.914;2022-08-25T08:46:56;4.45;;;2.80;;
52724;SDS011;38621;52.830;6.914;2022-08-25T08:49:34;5.30;;;2.90;;
52724;SDS011;38621;52.830;6.914;2022-08-25T08:52:08;4.63;;;2.70;;
52724;SDS011;38621;52.830;6.914;2022-08-25T08:54:38;4.22;;;2.67;;
52724;SDS011;38621;52.830;6.914;2022-08-25T08:57:13;3.08;;;2.20;;
52724;SDS011;38621;52.830;6.914;2022-08-25T08:59:49;5.07;;;2.80;;
52724;SDS011;38621;52.830;6.914;2022-08-25T09:02:22;3.25;;;2.38;;
52724;SDS011;38621;52.830;6.914;2022-08-25T09:05:03;4.90;;;2.92;;
52724;SDS011;38621;52.830;6.914;2022-08-25T09:08:06;3.88;;;2.42;;
52724;SDS011;38621;52.830;6.914;2022-08-25T09:10:33;3.78;;;2.15;;
52724;SDS011;38621;52.830;6.914;2022-08-25T09:29:58;3.05;;;2.22;;
52724;SDS011;38621;52.830;6.914;2022-08-25T09:32:29;4.22;;;1.88;;
52724;SDS011;38621;52.830;6.914;2022-08-25T09:35:03;3.47;;;1.80;;
52724;SDS011;38621;52.830;6.914;2022-08-25T09:37:31;3.58;;;2.00;;
52724;SDS011;38621;52.830;6.914;2022-08-25T09:39:57;4.90;;;2.10;;
52724;SDS011;38621;52.830;6.914;2022-08-25T09:42:27;3.55;;;1.70;;
52724;SDS011;38621;52.830;6.914;2022-08-25T09:45:13;2.63;;;1.85;;
52724;SDS011;38621;52.830;6.914;2022-08-25T09:47:43;2.85;;;1.77;;
52724;SDS011;38621;52.830;6.914;2022-08-25T09:50:14;2.40;;;1.90;;
52724;SDS011;38621;52.830;6.914;2022-08-25T09:52:41;2.67;;;1.80;;
52724;SDS011;38621;52.830;6.914;2022-08-25T10:00:16;4.32;;;1.80;;
52724;SDS011;38621;52.830;6.914;2022-08-25T10:03:00;4.35;;;1.63;;
52724;SDS011;38621;52.830;6.914;2022-08-25T10:05:37;3.38;;;1.60;;
52724;SDS011;38621;52.830;6.914;2022-08-25T10:08:31;2.78;;;1.67;;
52724;SDS011;38621;52.830;6.914;2022-08-25T10:11:01;3.33;;;1.98;;
52724;SDS011;38621;52.830;6.914;2022-08-25T10:13:40;3.92;;;1.90;;
52724;SDS011;38621;52.830;6.914;2022-08-25T10:19:01;2.85;;;1.92;;
52724;SDS011;38621;52.830;6.914;2022-08-25T10:21:31;2.88;;;1.60;;
52724;SDS011;38621;52.830;6.914;2022-08-25T10:23:57;2.28;;;1.60;;
52724;SDS011;38621;52.830;6.914;2022-08-25T10:29:15;2.47;;;1.75;;
52724;SDS011;38621;52.830;6.914;2022-08-25T10:35:47;4.10;;;1.77;;
52724;SDS011;38621;52.830;6.914;2022-08-25T10:40:20;3.60;;;1.48;;
52724;SDS011;38621;52.830;6.914;2022-08-25T10:43:05;2.75;;;1.80;;
52724;SDS011;38621;52.830;6.914;2022-08-25T10:45:44;3.55;;;1.80;;
52724;SDS011;38621;52.830;6.914;2022-08-25T10:51:28;2.63;;;1.58;;
52724;SDS011;38621;52.830;6.914;2022-08-25T10:54:28;4.60;;;1.80;;
52724;SDS011;38621;52.830;6.914;2022-08-25T11:00:13;4.13;;;1.80;;
52724;SDS011;38621;52.830;6.914;2022-08-25T11:05:48;3.97;;;2.20;;
52724;SDS011;38621;52.830;6.914;2022-08-25T11:08:33;2.35;;;1.70;;
52724;SDS011;38621;52.830;6.914;2022-08-25T11:11:16;4.05;;;1.77;;
52724;SDS011;38621;52.830;6.914;2022-08-25T11:13:59;2.50;;;1.70;;
52724;SDS011;38621;52.830;6.914;2022-08-25T11:17:04;3.20;;;2.10;;
52724;SDS011;38621;52.830;6.914;2022-08-25T11:19:47;2.10;;;1.55;;
52724;SDS011;38621;52.830;6.914;2022-08-25T11:22:20;3.25;;;1.80;;
52724;SDS011;38621;52.830;6.914;2022-08-25T11:27:45;3.40;;;1.80;;
52724;SDS011;38621;52.830;6.914;2022-08-25T11:30:30;3.40;;;1.75;;
52724;SDS011;38621;52.830;6.914;2022-08-25T11:32:56;3.65;;;1.77;;
52724;SDS011;38621;52.830;6.914;2022-08-25T11:35:31;2.53;;;1.77;;
52724;SDS011;38621;52.830;6.914;2022-08-25T11:40:58;2.67;;;1.77;;
52724;SDS011;38621;52.830;6.914;2022-08-25T11:46:21;3.03;;;2.10;;
52724;SDS011;38621;52.830;6.914;2022-08-25T11:55:03;3.35;;;1.58;;
52724;SDS011;38621;52.830;6.914;2022-08-25T11:57:35;3.78;;;1.73;;
52724;SDS011;38621;52.830;6.914;2022-08-25T12:00:36;3.03;;;1.70;;
52724;SDS011;38621;52.830;6.914;2022-08-25T12:04:09;3.78;;;1.70;;
52724;SDS011;38621;52.830;6.914;2022-08-25T12:37:57;3.15;;;1.88;;
52724;SDS011;38621;52.830;6.914;2022-08-25T12:45:44;4.68;;;2.33;;
52724;SDS011;38621;52.830;6.914;2022-08-25T12:50:56;2.65;;;1.80;;
52724;SDS011;38621;52.830;6.914;2022-08-25T12:53:35;3.72;;;1.85;;
52724;SDS011;38621;52.830;6.914;2022-08-25T12:56:49;2.20;;;1.67;;
52724;SDS011;38621;52.830;6.914;2022-08-25T13:05:03;2.53;;;1.80;;
52724;SDS011;38621;52.830;6.914;2022-08-25T13:18:44;3.45;;;2.00;;
52724;SDS011;38621;52.830;6.914;2022-08-25T13:21:22;2.88;;;2.10;;
52724;SDS011;38621;52.830;6.914;2022-08-25T13:24:01;3.22;;;2.10;;
52724;SDS011;38621;52.830;6.914;2022-08-25T13:26:32;2.55;;;2.00;;
52724;SDS011;38621;52.830;6.914;2022-08-25T13:29:10;4.15;;;2.10;;
52724;SDS011;38621;52.830;6.914;2022-08-25T13:31:53;2.63;;;2.05;;
52724;SDS011;38621;52.830;6.914;2022-08-25T13:34:28;4.00;;;1.98;;
52724;SDS011;38621;52.830;6.914;2022-08-25T13:36:59;4.85;;;1.77;;
52724;SDS011;38621;52.830;6.914;2022-08-25T13:42:32;3.55;;;1.83;;
52724;SDS011;38621;52.830;6.914;2022-08-25T13:45:00;2.67;;;2.20;;
52724;SDS011;38621;52.830;6.914;2022-08-25T13:47:39;3.70;;;2.35;;
52724;SDS011;38621;52.830;6.914;2022-08-25T13:50:27;3.13;;;2.05;;
52724;SDS011;38621;52.830;6.914;2022-08-25T13:57:56;3.10;;;1.85;;
52724;SDS011;38621;52.830;6.914;2022-08-25T14:00:33;4.20;;;2.22;;
52724;SDS011;38621;52.830;6.914;2022-08-25T14:03:05;3.20;;;2.20;;
52724;SDS011;38621;52.830;6.914;2022-08-25T14:07:59;3.05;;;2.20;;
52724;SDS011;38621;52.830;6.914;2022-08-25T14:10:44;3.28;;;2.05;;
52724;SDS011;38621;52.830;6.914;2022-08-25T14:15:41;2.72;;;2.00;;
52724;SDS011;38621;52.830;6.914;2022-08-25T14:18:18;3.55;;;2.38;;
52724;SDS011;38621;52.830;6.914;2022-08-25T14:20:48;3.13;;;1.95;;
52724;SDS011;38621;52.830;6.914;2022-08-25T14:23:19;3.30;;;1.98;;
52724;SDS011;38621;52.830;6.914;2022-08-25T14:25:49;2.65;;;1.70;;
52724;SDS011;38621;52.830;6.914;2022-08-25T14:28:17;2.88;;;2.20;;
52724;SDS011;38621;52.830;6.914;2022-08-25T14:30:47;3.25;;;2.35;;
52724;SDS011;38621;52.830;6.914;2022-08-25T14:33:16;3.13;;;2.10;;
52724;SDS011;38621;52.830;6.914;2022-08-25T14:35:46;3.03;;;2.10;;
52724;SDS011;38621;52.830;6.914;2022-08-25T14:38:13;2.63;;;1.80;;
52724;SDS011;38621;52.830;6.914;2022-08-25T14:40:39;3.05;;;1.90;;
52724;SDS011;38621;52.830;6.914;2022-08-25T14:43:06;3.45;;;2.10;;
52724;SDS011;38621;52.830;6.914;2022-08-25T14:45:31;4.43;;;2.10;;
52724;SDS011;38621;52.830;6.914;2022-08-25T14:48:02;4.25;;;2.10;;
52724;SDS011;38621;52.830;6.914;2022-08-25T14:50:32;2.30;;;1.90;;
52724;SDS011;38621;52.830;6.914;2022-08-25T14:52:59;3.28;;;1.80;;
52724;SDS011;38621;52.830;6.914;2022-08-25T14:55:25;2.60;;;1.75;;
52724;SDS011;38621;52.830;6.914;2022-08-25T14:57:51;2.95;;;2.10;;
52724;SDS011;38621;52.830;6.914;2022-08-25T15:00:17;3.10;;;1.80;;
52724;SDS011;38621;52.830;6.914;2022-08-25T15:02:43;3.50;;;1.80;;
52724;SDS011;38621;52.830;6.914;2022-08-25T15:05:12;2.97;;;1.88;;
52724;SDS011;38621;52.830;6.914;2022-08-25T15:07:40;2.85;;;2.10;;
52724;SDS011;38621;52.830;6.914;2022-08-25T15:10:24;4.30;;;1.90;;
52724;SDS011;38621;52.830;6.914;2022-08-25T15:12:50;2.55;;;1.90;;
52724;SDS011;38621;52.830;6.914;2022-08-25T15:15:16;3.70;;;2.30;;
52724;SDS011;38621;52.830;6.914;2022-08-25T15:17:42;3.75;;;1.95;;
52724;SDS011;38621;52.830;6.914;2022-08-25T15:20:11;2.45;;;1.73;;
52724;SDS011;38621;52.830;6.914;2022-08-25T15:22:37;3.88;;;1.80;;
52724;SDS011;38621;52.830;6.914;2022-08-25T15:25:03;2.65;;;1.30;;
52724;SDS011;38621;52.830;6.914;2022-08-25T15:27:30;4.32;;;1.80;;
52724;SDS011;38621;52.830;6.914;2022-08-25T15:29:56;2.97;;;1.63;;
52724;SDS011;38621;52.830;6.914;2022-08-25T15:32:21;2.88;;;1.65;;
52724;SDS011;38621;52.830;6.914;2022-08-25T15:34:48;2.47;;;1.63;;
52724;SDS011;38621;52.830;6.914;2022-08-25T15:37:15;3.15;;;1.40;;
52724;SDS011;38621;52.830;6.914;2022-08-25T15:39:42;3.40;;;1.60;;
52724;SDS011;38621;52.830;6.914;2022-08-25T15:42:10;2.95;;;1.63;;
52724;SDS011;38621;52.830;6.914;2022-08-25T15:44:39;2.30;;;1.67;;
52724;SDS011;38621;52.830;6.914;2022-08-25T15:47:05;3.30;;;2.03;;
52724;SDS011;38621;52.830;6.914;2022-08-25T15:49:31;3.05;;;1.70;;
52724;SDS011;38621;52.830;6.914;2022-08-25T15:51:58;3.83;;;1.95;;
52724;SDS011;38621;52.830;6.914;2022-08-25T15:54:24;2.47;;;1.73;;
52724;SDS011;38621;52.830;6.914;2022-08-25T15:56:51;3.38;;;2.00;;
52724;SDS011;38621;52.830;6.914;2022-08-25T15:59:17;3.25;;;1.90;;
52724;SDS011;38621;52.830;6.914;2022-08-25T16:01:43;3.15;;;1.88;;
52724;SDS011;38621;52.830;6.914;2022-08-25T16:04:10;2.85;;;1.88;;
52724;SDS011;38621;52.830;6.914;2022-08-25T16:06:36;3.05;;;1.77;;
52724;SDS011;38621;52.830;6.914;2022-08-25T16:09:02;3.25;;;1.80;;
52724;SDS011;38621;52.830;6.914;2022-08-25T16:11:30;2.95;;;1.73;;
52724;SDS011;38621;52.830;6.914;2022-08-25T16:13:59;3.33;;;2.45;;
52724;SDS011;38621;52.830;6.914;2022-08-25T16:16:26;2.70;;;2.20;;
52724;SDS011;38621;52.830;6.914;2022-08-25T16:18:54;2.90;;;2.10;;
52724;SDS011;38621;52.830;6.914;2022-08-25T16:21:21;3.08;;;2.00;;
52724;SDS011;38621;52.830;6.914;2022-08-25T16:23:54;3.42;;;2.20;;
52724;SDS011;38621;52.830;6.914;2022-08-25T16:26:25;3.15;;;2.38;;
52724;SDS011;38621;52.830;6.914;2022-08-25T16:28:51;2.83;;;2.10;;
52724;SDS011;38621;52.830;6.914;2022-08-25T16:31:17;4.35;;;2.33;;
52724;SDS011;38621;52.830;6.914;2022-08-25T16:33:43;4.05;;;2.33;;
52724;SDS011;38621;52.830;6.914;2022-08-25T16:36:11;2.85;;;2.20;;
52724;SDS011;38621;52.830;6.914;2022-08-25T16:38:41;3.30;;;2.10;;
52724;SDS011;38621;52.830;6.914;2022-08-25T16:41:09;3.60;;;2.10;;
52724;SDS011;38621;52.830;6.914;2022-08-25T16:43:37;3.08;;;2.53;;
52724;SDS011;38621;52.830;6.914;2022-08-25T16:46:04;3.20;;;2.17;;
52724;SDS011;38621;52.830;6.914;2022-08-25T16:48:32;2.85;;;2.17;;
52724;SDS011;38621;52.830;6.914;2022-08-25T16:50:58;2.75;;;2.20;;
52724;SDS011;38621;52.830;6.914;2022-08-25T16:53:33;3.75;;;2.10;;
52724;SDS011;38621;52.830;6.914;2022-08-25T16:56:17;3.70;;;2.00;;
52724;SDS011;38621;52.830;6.914;2022-08-25T16:58:49;3.40;;;2.20;;
52724;SDS011;38621;52.830;6.914;2022-08-25T17:01:19;3.05;;;2.20;;
52724;SDS011;38621;52.830;6.914;2022-08-25T17:03:46;3.00;;;2.30;;
52724;SDS011;38621;52.830;6.914;2022-08-25T17:06:12;4.55;;;2.13;;
52724;SDS011;38621;52.830;6.914;2022-08-25T17:08:38;3.75;;;1.95;;
52724;SDS011;38621;52.830;6.914;2022-08-25T17:11:09;2.53;;;2.13;;
52724;SDS011;38621;52.830;6.914;2022-08-25T17:13:43;3.15;;;2.20;;
52724;SDS011;38621;52.830;6.914;2022-08-25T17:16:11;3.42;;;1.95;;
52724;SDS011;38621;52.830;6.914;2022-08-25T17:18:38;3.15;;;2.15;;
52724;SDS011;38621;52.830;6.914;2022-08-25T17:21:05;3.67;;;1.80;;
52724;SDS011;38621;52.830;6.914;2022-08-25T17:23:34;3.22;;;2.33;;